Fassett, Pennsylvania
Current Conditions -  °F | °C
As of 10:53 PM on Tuesday 21 Oct 2014 (Local Time) from KELM Reporting Station
Overcast Overcast  
Wind Chill: 52°   Ceiling: 1400
Heat Index: 52°   Visibility: 9mi
Dew Point: 49°   Wind: 3mph
Humidity: 89%   Direction: 10°N
Pressure: 29.99"   Gusts: NA
Location:  41.9519°N, 76.7808°W
Report Text: KELM 220253Z 01003KT 9SM OVC014 11/09 A2999 RMK AO2 SLP157 T01110094 51020
Loading
Personal Weather Stations






























Interactive Weather Map
Tropical Storm Tracking
New forecast layout! Learn more

10-Day Weather Forecast

Advertisements
Track Severe Weather on mobile